Time;durP1;ratioP1;P1;durP2;ratioP2;P2;SDS_P1;SDS_P2;PMS_P1;PMS_P2;Temp;Humidity;BMP_temperature;BMP_pressure;BME280_temperature;BME280_humidity;BME280_pressure;Samples;Min_cycle;Max_cycle;Signal;HPM_P1;HPM_P2
2023/12/09 00:04:43;;;;;;;7.93;2.30;;;;;;;17.79;54.53;96468.06;10392963;28;20492;-30
2023/12/09 00:09:43;;;;;;;6.17;2.10;;;;;;;17.78;54.68;96470.59;10394769;28;20115;-29
2023/12/09 00:14:44;;;;;;;4.67;2.00;;;;;;;17.84;54.04;96475.66;10402858;28;20421;-30
2023/12/09 00:19:44;;;;;;;5.13;2.05;;;;;;;17.82;53.64;96482.44;10396165;28;20029;-30
2023/12/09 00:24:44;;;;;;;6.70;2.17;;;;;;;17.82;54.20;96484.97;10389595;28;20030;-29
2023/12/09 00:29:45;;;;;;;7.50;2.37;;;;;;;17.81;54.25;96479.03;10394357;28;20126;-30
2023/12/09 00:34:45;;;;;;;7.47;2.10;;;;;;;17.82;53.87;96475.66;10397709;28;20076;-30
2023/12/09 00:39:46;;;;;;;4.63;1.87;;;;;;;17.83;53.87;96486.63;10399710;28;20353;-30
2023/12/09 00:44:46;;;;;;;4.77;1.77;;;;;;;17.83;53.81;96484.09;10388441;28;20045;-30
2023/12/09 00:49:46;;;;;;;4.63;1.83;;;;;;;17.81;53.21;96491.69;10394899;28;20353;-30
2023/12/09 00:54:47;;;;;;;4.30;1.83;;;;;;;17.82;53.75;96502.69;10389779;28;20145;-30
2023/12/09 00:59:47;;;;;;;4.90;2.47;;;;;;;17.81;54.35;96498.44;10392123;28;20342;-30
2023/12/09 01:04:47;;;;;;;4.80;2.20;;;;;;;17.80;52.19;96496.75;10391049;28;20034;-31
2023/12/09 01:09:50;;;;;;;6.00;2.00;;;;;;;17.80;54.51;96504.34;10390775;28;20392;-30
2023/12/09 01:14:50;;;;;;;3.40;1.48;;;;;;;17.81;53.70;96506.03;10394566;28;20273;-31
2023/12/09 01:19:51;;;;;;;4.00;1.67;;;;;;;17.80;53.04;96514.47;10387192;28;20037;-30
2023/12/09 01:24:51;;;;;;;4.27;1.93;;;;;;;17.78;54.34;96516.19;10392042;28;20037;-30
2023/12/09 01:29:51;;;;;;;4.33;1.97;;;;;;;17.79;52.70;96527.97;10389910;28;20120;-30
2023/12/09 01:34:52;;;;;;;3.80;2.13;;;;;;;17.77;53.41;96524.63;10387587;28;20038;-30
2023/12/09 01:39:52;;;;;;;4.63;1.30;;;;;;;17.77;53.30;96530.53;10384544;28;20126;-30
2023/12/09 01:44:52;;;;;;;3.40;1.67;;;;;;;17.77;54.70;96533.06;10391207;28;20505;-30
2023/12/09 01:49:53;;;;;;;3.33;1.73;;;;;;;17.75;54.43;96532.19;10392855;28;20056;-30
2023/12/09 01:54:54;;;;;;;4.10;1.50;;;;;;;17.75;52.83;96546.56;10395881;28;20438;-29
2023/12/09 01:59:54;;;;;;;6.22;1.48;;;;;;;17.72;55.16;96539.81;10388331;28;20403;-30
2023/12/09 02:04:55;;;;;;;2.63;1.47;;;;;;;17.74;54.48;96544.88;10395088;28;20041;-29
2023/12/09 02:09:56;;;;;;;2.90;1.48;;;;;;;17.73;54.30;96538.13;10386016;28;20110;-30
2023/12/09 02:15:22;;;;;;;4.70;1.40;;;;;;;17.72;54.74;96521.22;10395486;28;20447;-31
2023/12/09 02:20:23;;;;;;;4.70;1.43;;;;;;;17.70;54.35;96501.00;10382157;28;20052;-30
2023/12/09 02:25:23;;;;;;;5.30;1.35;;;;;;;17.72;53.36;96500.97;10389983;28;20063;-31
2023/12/09 02:30:31;;;;;;;4.83;1.70;;;;;;;17.70;53.63;96492.53;10390965;28;20517;-30
2023/12/09 02:35:36;;;;;;;2.20;1.50;;;;;;;17.71;53.66;96486.63;10384795;28;20021;-30
2023/12/09 02:40:38;;;;;;;6.00;1.80;;;;;;;17.71;53.88;96491.69;10384503;28;20458;-30
2023/12/09 02:45:39;;;;;;;8.35;2.13;;;;;;;17.65;54.87;96472.28;10393226;28;20471;-30
2023/12/09 02:50:39;;;;;;;4.80;1.70;;;;;;;17.70;54.09;96484.94;10384766;28;20038;-30
2023/12/09 02:55:40;;;;;;;4.40;1.33;;;;;;;17.66;52.83;96480.75;10386134;28;20393;-30
2023/12/09 03:00:40;;;;;;;3.87;1.83;;;;;;;17.65;55.01;96489.19;10378844;28;20034;-31
2023/12/09 03:05:40;;;;;;;7.73;2.10;;;;;;;17.64;55.11;96457.09;10381768;28;20038;-30
2023/12/09 03:10:41;;;;;;;4.00;1.60;;;;;;;17.62;54.95;96452.06;10389551;28;20038;-30
2023/12/09 03:15:41;;;;;;;5.97;1.40;;;;;;;17.62;54.13;96454.59;10398977;28;20288;-30
2023/12/09 03:20:41;;;;;;;3.73;1.17;;;;;;;17.65;53.58;96453.75;10385650;28;20292;-30
2023/12/09 03:25:42;;;;;;;4.32;1.98;;;;;;;17.67;53.88;96449.53;10383877;28;20092;-30
2023/12/09 03:30:42;;;;;;;3.17;1.43;;;;;;;17.64;55.23;96437.69;10388446;28;20042;-30
2023/12/09 03:35:45;;;;;;;2.30;1.40;;;;;;;17.66;53.84;96425.88;10381800;28;20555;-30
2023/12/09 03:40:45;;;;;;;4.82;1.58;;;;;;;17.68;54.11;96433.47;10379557;28;20315;-31
2023/12/09 03:45:45;;;;;;;2.53;1.67;;;;;;;17.70;52.89;96431.78;10391073;28;20036;-30
2023/12/09 03:50:46;;;;;;;3.53;1.40;;;;;;;17.70;53.23;96436.84;10390018;28;20034;-29
2023/12/09 03:55:48;;;;;;;5.00;2.03;;;;;;;17.65;55.36;96433.50;10384726;28;20045;-30
2023/12/09 04:00:49;;;;;;;2.72;1.63;;;;;;;17.68;54.74;96436.00;10390134;28;20034;-31
2023/12/09 04:05:50;;;;;;;3.47;1.10;;;;;;;17.66;54.81;96440.25;10381276;28;20026;-31
2023/12/09 04:10:50;;;;;;;2.60;1.20;;;;;;;17.67;53.86;96454.59;10388308;28;20021;-30
2023/12/09 04:15:51;;;;;;;4.82;2.25;;;;;;;17.54;54.84;96440.25;10398492;28;20051;-30
2023/12/09 04:20:51;;;;;;;6.57;2.80;;;;;;;17.63;54.91;96455.41;10386269;28;20407;-30
2023/12/09 04:25:51;;;;;;;2.05;1.10;;;;;;;17.61;55.56;96447.00;10381487;28;20030;-30
2023/12/09 04:30:52;;;;;;;2.37;1.20;;;;;;;17.59;55.40;96430.97;10381849;28;20032;-30
2023/12/09 04:35:52;;;;;;;3.23;1.20;;;;;;;17.58;54.78;96440.22;10380621;28;20034;-30
2023/12/09 04:40:52;;;;;;;1.50;1.10;;;;;;;17.62;55.63;96458.78;10391568;28;20404;-30
2023/12/09 04:45:53;;;;;;;5.40;1.73;;;;;;;17.61;55.27;96455.44;10383754;28;20037;-30
2023/12/09 04:50:53;;;;;;;4.30;1.20;;;;;;;17.63;54.93;96455.41;10379369;28;20099;-31
2023/12/09 04:55:53;;;;;;;3.40;1.40;;;;;;;17.59;55.40;96453.75;10390930;28;20032;-30
2023/12/09 05:00:54;;;;;;;4.73;1.40;;;;;;;17.58;55.39;96436.88;10374884;28;20034;-30
2023/12/09 05:05:54;;;;;;;1.93;1.03;;;;;;;17.59;54.86;96438.56;10383208;28;20171;-30
2023/12/09 05:10:54;;;;;;;5.57;1.20;;;;;;;17.55;55.01;96436.84;10384664;28;20041;-30
2023/12/09 05:15:55;;;;;;;4.33;1.23;;;;;;;17.58;55.15;96441.94;10380848;28;20504;-30
2023/12/09 05:20:55;;;;;;;3.03;1.17;;;;;;;17.60;55.15;96445.31;10381300;28;20039;-30
2023/12/09 05:25:55;;;;;;;1.73;1.10;;;;;;;17.58;55.36;96441.94;10381448;28;20048;-30
2023/12/09 05:30:57;;;;;;;4.87;1.10;;;;;;;17.59;55.47;96430.97;10380378;28;20038;-29
2023/12/09 05:35:57;;;;;;;2.90;1.10;;;;;;;17.56;55.45;96430.97;10378043;28;20048;-30
2023/12/09 05:40:57;;;;;;;2.43;0.80;;;;;;;17.55;55.40;96412.41;10378988;28;20484;-30
2023/12/09 05:45:58;;;;;;;2.60;1.13;;;;;;;17.54;55.39;96395.53;10387903;28;20505;-30
2023/12/09 05:50:58;;;;;;;3.40;1.20;;;;;;;17.55;55.44;96401.41;10392546;28;20033;-30
2023/12/09 05:55:58;;;;;;;2.40;1.30;;;;;;;17.54;55.36;96389.63;10410461;28;20037;-31
2023/12/09 06:01:00;;;;;;;4.47;1.27;;;;;;;17.54;54.99;96377.81;10395241;28;20292;-30
2023/12/09 06:06:00;;;;;;;3.65;1.00;;;;;;;17.53;55.20;96378.66;10402054;28;20040;-30
2023/12/09 06:11:01;;;;;;;2.03;0.80;;;;;;;17.52;55.54;96378.66;10391410;28;20427;-30
2023/12/09 06:16:02;;;;;;;2.78;1.20;;;;;;;17.50;55.64;96375.28;10410218;28;20289;-30
2023/12/09 06:21:03;;;;;;;1.90;1.30;;;;;;;17.57;54.60;96376.97;10400643;28;20038;-30
2023/12/09 06:26:03;;;;;;;1.05;0.75;;;;;;;17.62;54.79;96372.72;10409365;28;20476;-30
2023/12/09 06:31:05;;;;;;;3.85;0.93;;;;;;;17.65;54.38;96377.81;10402444;28;20057;-30
2023/12/09 06:36:06;;;;;;;2.20;0.95;;;;;;;17.66;54.10;96380.31;10411021;28;20402;-30
2023/12/09 06:41:07;;;;;;;5.55;0.82;;;;;;;17.67;54.67;96371.03;10400865;28;20045;-30
2023/12/09 06:46:07;;;;;;;0.85;0.70;;;;;;;17.67;53.09;96349.09;10407834;28;20550;-30
2023/12/09 06:51:17;;;;;;;1.67;0.70;;;;;;;17.71;53.60;96342.31;10405099;28;20029;-30
2023/12/09 06:56:21;;;;;;;4.97;1.67;;;;;;;17.73;53.67;96345.72;10413319;28;20514;-32
2023/12/09 07:01:22;;;;;;;4.22;0.77;;;;;;;17.79;52.24;96355.81;10412226;28;20038;-30
2023/12/09 07:06:24;;;;;;;2.35;1.13;;;;;;;17.80;52.03;96357.47;10400332;28;20061;-30
2023/12/09 07:11:25;;;;;;;5.63;1.13;;;;;;;17.78;52.14;96361.72;10414869;28;20100;-31
2023/12/09 07:16:25;;;;;;;3.40;1.07;;;;;;;17.81;51.75;96364.22;10408152;28;20042;-33
2023/12/09 07:21:27;;;;;;;4.97;1.10;;;;;;;17.84;51.68;96359.19;10400974;28;20124;-30
2023/12/09 07:26:28;;;;;;;3.45;1.27;;;;;;;17.86;52.11;96367.59;10407141;28;20072;-30
2023/12/09 07:31:28;;;;;;;3.10;0.98;;;;;;;17.83;51.60;96367.63;10410363;28;20040;-30
2023/12/09 07:36:28;;;;;;;2.50;1.03;;;;;;;17.85;52.04;96360.84;10401302;28;20446;-31
2023/12/09 07:41:29;;;;;;;1.95;0.75;;;;;;;17.85;51.56;96356.66;10347653;28;20037;-30
2023/12/09 07:46:29;;;;;;;4.80;1.52;;;;;;;17.86;51.51;96347.34;10355179;28;20482;-30
2023/12/09 07:51:30;;;;;;;3.27;1.73;;;;;;;17.86;51.32;96354.94;10357714;28;20061;-31
2023/12/09 07:56:30;;;;;;;2.33;1.57;;;;;;;17.84;51.30;96349.88;10395959;28;20033;-30
2023/12/09 08:01:31;;;;;;;2.55;1.00;;;;;;;17.85;51.16;96348.19;10365949;28;20127;-30
2023/12/09 08:06:32;;;;;;;2.05;1.02;;;;;;;17.82;52.06;96345.69;10398457;28;20404;-30
2023/12/09 08:11:32;;;;;;;1.25;1.00;;;;;;;17.80;52.07;96348.22;10401190;28;20037;-30
2023/12/09 08:16:32;;;;;;;1.20;0.87;;;;;;;17.84;51.17;96365.06;10401362;28;20162;-30
2023/12/09 08:21:36;;;;;;;2.23;1.43;;;;;;;17.81;51.83;96344.81;10398921;28;20060;-30
2023/12/09 08:26:37;;;;;;;3.42;0.98;;;;;;;17.82;51.90;96345.69;10395234;28;20048;-30
2023/12/09 08:31:37;;;;;;;1.37;0.73;;;;;;;17.76;52.98;96338.94;10397431;28;20467;-29
2023/12/09 08:36:38;;;;;;;2.95;1.30;;;;;;;17.80;52.27;96342.28;10392076;28;20292;-30
2023/12/09 08:41:38;;;;;;;1.75;1.20;;;;;;;17.83;51.66;96344.84;10392995;28;20090;-30
2023/12/09 08:46:39;;;;;;;1.93;1.40;;;;;;;17.82;51.10;96331.31;10399669;28;20053;-31
2023/12/09 08:51:46;;;;;;;3.17;1.10;;;;;;;17.78;52.73;96323.75;10398083;28;20441;-30
2023/12/09 08:56:46;;;;;;;9.05;1.80;;;;;;;17.68;53.58;96309.44;10401119;28;20036;-30
2023/12/09 09:01:47;;;;;;;5.67;1.70;;;;;;;17.36;54.12;96324.72;10395142;28;20044;-30
2023/12/09 09:06:47;;;;;;;7.40;1.70;;;;;;;17.30;53.93;96336.47;10399365;28;20496;-30
2023/12/09 09:11:47;;;;;;;4.37;1.87;;;;;;;17.24;53.66;96328.91;10389093;28;20049;-30
2023/12/09 09:16:48;;;;;;;5.87;3.10;;;;;;;17.45;54.76;96318.78;10403070;28;20503;-30
2023/12/09 09:21:48;;;;;;;5.57;1.60;;;;;;;17.51;54.60;96308.66;10389963;28;20073;-31
2023/12/09 09:26:48;;;;;;;2.87;1.73;;;;;;;17.57;54.62;96311.16;10406687;28;20041;-32
2023/12/09 09:31:49;;;;;;;3.90;1.60;;;;;;;17.67;53.04;96295.91;10391479;28;20354;-31
2023/12/09 09:36:49;;;;;;;4.63;1.67;;;;;;;17.71;52.98;96296.75;10390037;28;20033;-31
2023/12/09 09:42:08;;;;;;;4.20;1.70;;;;;;;17.64;53.09;96285.81;10394390;28;20116;-33
2023/12/09 09:47:10;;;;;;;5.05;2.47;;;;;;;17.56;51.29;96276.59;10396248;28;20621;-31
2023/12/09 09:52:14;;;;;;;8.52;2.22;;;;;;;17.53;52.16;96252.13;10391349;28;20554;-32
2023/12/09 09:57:15;;;;;;;8.50;2.22;;;;;;;17.66;51.39;96252.91;10392027;28;20064;-31
2023/12/09 10:02:19;;;;;;;6.97;2.60;;;;;;;17.71;53.81;96262.16;10393079;28;20097;-29
2023/12/09 10:07:21;;;;;;;5.45;3.25;;;;;;;17.73;51.86;96254.56;10392191;28;20575;-29
2023/12/09 10:12:21;;;;;;;3.45;2.17;;;;;;;17.70;54.41;96254.56;10406129;28;20418;-30
2023/12/09 10:17:22;;;;;;;3.63;2.23;;;;;;;17.73;54.93;96239.38;10412259;28;20038;-30
2023/12/09 10:22:27;;;;;;;4.85;1.85;;;;;;;17.72;53.88;96212.34;10406760;28;20037;-29
2023/12/09 10:27:28;;;;;;;3.55;1.85;;;;;;;17.74;54.00;96195.50;10409865;28;20397;-28
2023/12/09 10:32:28;;;;;;;2.47;1.60;;;;;;;17.75;52.71;96187.88;10405237;28;20025;-29
2023/12/09 10:37:29;;;;;;;2.00;1.33;;;;;;;17.76;53.55;96192.06;10413191;28;20040;-29
2023/12/09 10:42:29;;;;;;;2.25;1.27;;;;;;;17.77;53.11;96180.28;10408293;28;20041;-30
2023/12/09 10:47:29;;;;;;;3.07;1.27;;;;;;;17.77;52.86;96175.22;10417857;28;20041;-30
2023/12/09 10:52:30;;;;;;;4.53;1.53;;;;;;;17.77;53.04;96154.97;10402227;28;20049;-29
2023/12/09 10:57:33;;;;;;;2.50;1.50;;;;;;;17.74;53.90;96147.41;10399527;28;20391;-30
2023/12/09 11:02:35;;;;;;;2.80;1.65;;;;;;;17.75;53.02;96127.09;10407308;28;21028;-29
2023/12/09 11:07:37;;;;;;;5.97;3.30;;;;;;;17.76;53.58;96102.66;10409311;28;20411;-29
2023/12/09 11:12:37;;;;;;;5.00;1.50;;;;;;;17.70;53.17;96063.03;10406687;28;20476;-29
2023/12/09 11:17:38;;;;;;;5.30;1.65;;;;;;;17.74;53.32;96072.25;10408080;28;20096;-29
2023/12/09 11:22:43;;;;;;;2.83;1.75;;;;;;;17.76;53.73;96052.00;10397079;28;20033;-29
2023/12/09 11:27:43;;;;;;;3.95;1.73;;;;;;;17.75;54.01;96030.09;10399308;28;20084;-29
2023/12/09 11:32:44;;;;;;;5.53;1.90;;;;;;;17.74;53.74;96023.34;10404968;28;20104;-29
2023/12/09 11:37:45;;;;;;;3.42;2.00;;;;;;;17.74;53.16;96008.16;10412026;28;20033;-29
2023/12/09 11:42:48;;;;;;;3.35;1.98;;;;;;;17.75;53.29;96014.91;10398511;28;20033;-30
2023/12/09 11:47:52;;;;;;;3.65;2.25;;;;;;;17.74;54.27;95998.03;10400964;28;20037;-30
2023/12/09 11:52:52;;;;;;;4.30;1.83;;;;;;;17.67;52.88;95961.78;10401450;28;20083;-29
2023/12/09 11:57:53;;;;;;;4.13;1.83;;;;;;;17.65;53.15;95952.53;10398858;28;20128;-30
2023/12/09 12:02:53;;;;;;;6.88;2.72;;;;;;;17.72;53.40;95964.25;10401467;28;20376;-30
2023/12/09 12:07:54;;;;;;;7.20;2.63;;;;;;;17.72;53.03;95959.22;10402998;28;20037;-29
2023/12/09 12:12:54;;;;;;;4.57;2.97;;;;;;;17.72;53.05;95942.34;10399078;28;20091;-30
2023/12/09 12:17:55;;;;;;;5.00;3.20;;;;;;;17.76;52.70;95921.19;10400893;28;20178;-30
2023/12/09 12:22:56;;;;;;;7.03;3.07;;;;;;;17.73;52.25;95903.50;10403526;28;20095;-30
2023/12/09 12:27:56;;;;;;;4.80;2.80;;;;;;;17.70;52.03;95879.91;10395575;28;20064;-30
2023/12/09 12:32:57;;;;;;;7.05;3.60;;;;;;;17.74;52.46;95879.03;10398236;28;20034;-30
2023/12/09 12:37:57;;;;;;;6.75;2.65;;;;;;;17.47;51.65;95851.47;10391899;28;20037;-30
2023/12/09 12:43:03;;;;;;;4.40;1.92;;;;;;;17.46;50.96;95862.44;10395018;28;20044;-30
2023/12/09 12:48:04;;;;;;;7.28;3.33;;;;;;;17.62;51.40;95851.31;10397586;28;20034;-31
2023/12/09 12:53:04;;;;;;;5.05;2.17;;;;;;;17.68;51.09;95848.72;10398914;28;20037;-30
2023/12/09 12:58:05;;;;;;;6.47;2.40;;;;;;;17.69;51.23;95823.41;10395734;28;20431;-31
2023/12/09 13:03:06;;;;;;;7.68;2.63;;;;;;;17.70;51.28;95809.88;10397501;28;20488;-31
2023/12/09 13:08:07;;;;;;;6.38;2.25;;;;;;;17.73;51.43;95783.72;10401806;28;20045;-30
2023/12/09 13:13:07;;;;;;;5.17;3.33;;;;;;;17.73;51.30;95794.66;10394211;28;20025;-30
2023/12/09 13:18:07;;;;;;;4.27;2.30;;;;;;;17.54;50.81;95798.25;10392581;28;20029;-30
2023/12/09 13:23:08;;;;;;;4.60;2.13;;;;;;;17.58;52.48;95788.94;10390589;28;20036;-30
2023/12/09 13:28:08;;;;;;;6.53;2.00;;;;;;;17.57;53.84;95764.50;10384577;28;20037;-30
2023/12/09 13:33:09;;;;;;;4.68;1.80;;;;;;;17.55;51.87;95778.84;10397728;28;20284;-32
2023/12/09 13:38:09;;;;;;;4.73;2.23;;;;;;;17.64;53.27;95768.59;10390218;28;20124;-30
2023/12/09 13:43:10;;;;;;;4.25;2.50;;;;;;;17.65;54.60;95750.06;10396857;28;20387;-30
2023/12/09 13:48:11;;;;;;;4.25;2.47;;;;;;;17.61;54.87;95730.69;10380766;28;20036;-30
2023/12/09 13:53:11;;;;;;;3.80;2.40;;;;;;;17.64;55.03;95723.91;10395688;28;20052;-31
2023/12/09 13:58:12;;;;;;;4.78;2.85;;;;;;;17.66;54.84;95713.75;10384507;28;20057;-29
2023/12/09 14:03:12;;;;;;;3.42;2.20;;;;;;;17.60;53.52;95708.78;10383694;28;20034;-30
2023/12/09 14:08:13;;;;;;;6.30;2.60;;;;;;;17.57;53.83;95691.09;10392484;28;20041;-30
2023/12/09 14:13:14;;;;;;;5.07;2.50;;;;;;;17.68;53.71;95694.31;10380847;28;20073;-31
2023/12/09 14:18:14;;;;;;;5.00;2.17;;;;;;;17.74;53.17;95668.94;10397577;28;20041;-30
2023/12/09 14:23:16;;;;;;;5.80;2.45;;;;;;;17.74;54.01;95646.97;10396149;28;20156;-31
2023/12/09 14:28:16;;;;;;;3.60;1.80;;;;;;;17.79;53.89;95616.53;10389330;28;20515;-31
2023/12/09 14:33:16;;;;;;;6.10;2.93;;;;;;;17.77;54.86;95626.69;10398082;28;20065;-30
2023/12/09 14:38:17;;;;;;;6.10;2.77;;;;;;;17.79;54.68;95632.56;10382787;28;20045;-30
2023/12/09 14:43:17;;;;;;;3.33;2.42;;;;;;;17.77;55.06;95592.94;10394579;28;20064;-31
2023/12/09 14:48:17;;;;;;;3.77;2.47;;;;;;;17.76;54.75;95564.25;10400744;28;20049;-31
2023/12/09 14:53:19;;;;;;;5.67;2.33;;;;;;;17.76;54.66;95538.94;10396266;28;20026;-30
2023/12/09 14:58:20;;;;;;;2.85;1.58;;;;;;;17.74;55.72;95491.75;10403575;28;20349;-31
2023/12/09 15:03:20;;;;;;;4.07;2.38;;;;;;;17.77;54.89;95472.28;10407935;28;20041;-30
2023/12/09 15:08:21;;;;;;;3.85;2.28;;;;;;;17.76;54.84;95457.13;10396631;28;20087;-31
2023/12/09 15:13:21;;;;;;;5.45;2.50;;;;;;;17.80;56.75;95451.13;10401813;28;20037;-31
2023/12/09 15:18:21;;;;;;;3.00;2.10;;;;;;;17.72;58.15;95428.50;10394252;28;20038;-30
2023/12/09 15:23:22;;;;;;;6.50;2.50;;;;;;;17.67;57.89;95426.91;10395166;28;20739;-31
2023/12/09 15:28:26;;;;;;;4.03;2.97;;;;;;;17.59;57.84;95416.09;10401819;28;20117;-31
2023/12/09 15:33:27;;;;;;;4.63;2.47;;;;;;;17.65;57.04;95429.47;10398824;28;20706;-31
2023/12/09 15:38:27;;;;;;;3.33;2.03;;;;;;;17.70;55.40;95401.53;10387625;28;20045;-30
2023/12/09 15:43:27;;;;;;;3.60;2.27;;;;;;;17.65;54.82;95411.75;10396317;28;20159;-31
2023/12/09 15:48:28;;;;;;;5.47;2.73;;;;;;;17.69;56.62;95392.28;10396565;28;20108;-31
2023/12/09 15:53:28;;;;;;;4.00;1.85;;;;;;;17.67;56.30;95335.78;10398597;28;20113;-31
2023/12/09 15:58:29;;;;;;;3.80;1.93;;;;;;;17.68;57.16;95345.88;10397236;28;20041;-30
2023/12/09 16:03:29;;;;;;;14.45;2.20;;;;;;;17.69;57.46;95329.00;10384298;28;20557;-31
2023/12/09 16:08:30;;;;;;;4.82;2.00;;;;;;;17.64;54.68;95318.13;10392743;28;20048;-32
2023/12/09 16:13:30;;;;;;;11.52;2.40;;;;;;;17.58;56.54;95308.13;10391685;28;20041;-31
2023/12/09 16:18:31;;;;;;;6.20;2.00;;;;;;;17.59;56.30;95280.25;10391357;28;20558;-30
2023/12/09 16:23:31;;;;;;;6.30;1.98;;;;;;;17.59;56.47;95264.25;10393130;28;20037;-31
2023/12/09 16:28:31;;;;;;;3.73;1.80;;;;;;;17.61;55.96;95252.41;10382776;28;20100;-31
2023/12/09 16:33:32;;;;;;;6.38;2.15;;;;;;;17.61;55.92;95254.94;10397200;28;20486;-32
2023/12/09 16:38:35;;;;;;;3.10;1.60;;;;;;;17.58;56.29;95238.09;10389031;28;20041;-30
2023/12/09 16:43:35;;;;;;;6.47;2.13;;;;;;;17.63;55.79;95251.50;10384636;28;20107;-30
2023/12/09 16:48:36;;;;;;;3.80;1.77;;;;;;;17.64;54.91;95229.53;10395597;28;20079;-31
2023/12/09 16:53:36;;;;;;;3.85;1.63;;;;;;;17.65;55.60;95229.53;10396531;28;20064;-31
2023/12/09 16:58:37;;;;;;;4.20;1.63;;;;;;;17.72;54.53;95212.50;10400699;28;20029;-30
2023/12/09 17:03:37;;;;;;;4.57;2.10;;;;;;;17.71;55.02;95177.94;10394661;28;20037;-32
2023/12/09 17:08:37;;;;;;;5.83;1.97;;;;;;;17.68;54.86;95183.09;10394771;28;20525;-30
2023/12/09 17:13:37;;;;;;;5.70;1.83;;;;;;;17.69;55.15;95147.63;10400359;28;20021;-30
2023/12/09 17:18:38;;;;;;;3.47;1.73;;;;;;;17.68;54.79;95129.94;10398218;28;20640;-31
2023/12/09 17:23:39;;;;;;;6.80;2.60;;;;;;;17.67;55.19;95125.75;10401397;28;20025;-31
2023/12/09 17:28:40;;;;;;;4.20;1.85;;;;;;;17.67;55.41;95121.50;10389114;28;20128;-31
2023/12/09 17:33:41;;;;;;;2.45;1.40;;;;;;;17.64;55.08;95098.81;10386390;28;20036;-31
2023/12/09 17:38:42;;;;;;;6.60;1.70;;;;;;;17.68;54.90;95091.97;10400605;28;20430;-30
2023/12/09 17:43:43;;;;;;;2.83;1.33;;;;;;;17.70;54.73;95095.31;10399813;28;20483;-30
2023/12/09 17:48:43;;;;;;;2.70;1.50;;;;;;;17.67;54.89;95085.25;10371665;28;20036;-30
2023/12/09 17:53:44;;;;;;;2.67;1.65;;;;;;;17.66;55.51;95058.28;10394020;28;20655;-30
2023/12/09 17:58:44;;;;;;;3.27;1.60;;;;;;;17.63;55.44;95079.44;10402150;28;20640;-30
2023/12/09 18:03:45;;;;;;;2.73;2.00;;;;;;;17.64;54.99;95086.16;10400113;28;20037;-31
2023/12/09 18:08:45;;;;;;;5.83;1.70;;;;;;;17.67;55.56;95080.19;10403236;28;20276;-28
2023/12/09 18:13:46;;;;;;;5.28;1.63;;;;;;;17.65;55.91;95067.56;10402186;28;20051;-29
2023/12/09 18:18:46;;;;;;;2.73;1.50;;;;;;;17.69;56.35;95054.00;10400431;28;20046;-28
2023/12/09 18:23:47;;;;;;;5.25;2.17;;;;;;;17.66;56.52;95048.16;10401653;28;20060;-29
2023/12/09 18:28:47;;;;;;;4.85;1.65;;;;;;;17.73;56.32;95049.69;10390667;28;20037;-28
2023/12/09 18:33:48;;;;;;;3.65;1.98;;;;;;;17.80;56.45;95056.25;10391155;28;20029;-31
2023/12/09 18:38:48;;;;;;;4.93;1.73;;;;;;;17.91;56.31;95044.19;10406963;28;20033;-31
2023/12/09 18:43:48;;;;;;;8.87;1.77;;;;;;;17.99;56.24;95037.25;10403775;28;20163;-30
2023/12/09 18:48:49;;;;;;;2.97;1.48;;;;;;;18.03;56.11;95033.75;10388695;28;20034;-30
2023/12/09 18:53:49;;;;;;;3.67;1.60;;;;;;;18.14;56.07;95064.69;10390557;28;20048;-30
2023/12/09 18:58:49;;;;;;;3.90;1.80;;;;;;;18.18;56.17;95054.44;10390185;28;20034;-30
2023/12/09 19:03:50;;;;;;;7.90;1.77;;;;;;;18.23;56.15;95051.78;10360849;28;20049;-31
2023/12/09 19:08:50;;;;;;;5.53;1.57;;;;;;;18.22;56.24;95029.88;10397396;28;20029;-32
2023/12/09 19:13:50;;;;;;;2.80;1.70;;;;;;;18.27;56.30;95055.94;10394807;28;20061;-31
2023/12/09 19:18:51;;;;;;;3.20;1.03;;;;;;;18.29;56.04;95076.97;10403926;28;21655;-30
2023/12/09 19:23:51;;;;;;;2.13;1.30;;;;;;;18.32;56.09;95113.22;10385560;28;20299;-31
2023/12/09 19:28:51;;;;;;;6.17;1.37;;;;;;;18.38;56.16;95148.56;10358456;28;20480;-30
2023/12/09 19:33:52;;;;;;;3.03;1.77;;;;;;;18.41;56.13;95123.13;10376108;28;20037;-31
2023/12/09 19:38:52;;;;;;;5.72;1.55;;;;;;;18.41;56.36;95175.53;10358524;28;20053;-31
2023/12/09 19:43:53;;;;;;;3.30;1.40;;;;;;;18.42;56.24;95184.78;10348791;28;20040;-31
2023/12/09 19:48:53;;;;;;;2.13;1.73;;;;;;;18.44;56.42;95215.97;10347895;28;20492;-30
2023/12/09 19:53:53;;;;;;;4.57;1.58;;;;;;;18.46;56.11;95257.31;10364995;28;20509;-30
2023/12/09 19:58:54;;;;;;;4.83;2.00;;;;;;;18.45;56.45;95263.25;10385247;28;20066;-31
2023/12/09 20:03:54;;;;;;;4.23;2.83;;;;;;;18.48;56.13;95306.25;10358660;28;20124;-30
2023/12/09 20:08:55;;;;;;;3.73;2.30;;;;;;;18.48;56.17;95321.44;10361104;28;20044;-30
2023/12/09 20:13:55;;;;;;;4.10;2.38;;;;;;;18.51;56.20;95349.28;10377790;28;20693;-31
2023/12/09 20:18:56;;;;;;;3.58;2.00;;;;;;;18.51;55.75;95369.56;10359428;28;20026;-31
2023/12/09 20:23:57;;;;;;;5.70;1.93;;;;;;;18.53;55.85;95391.47;10359642;28;20026;-31
2023/12/09 20:28:57;;;;;;;3.75;1.98;;;;;;;18.52;55.47;95421.91;10359726;28;20079;-30
2023/12/09 20:33:58;;;;;;;3.27;2.00;;;;;;;18.56;55.80;95448.84;10330584;28;20034;-31
2023/12/09 20:38:58;;;;;;;4.43;1.57;;;;;;;18.54;55.70;95370.31;10398083;28;20033;-31
2023/12/09 20:43:59;;;;;;;4.20;1.90;;;;;;;18.61;55.51;95373.56;10385182;28;20049;-30
2023/12/09 20:48:59;;;;;;;3.60;1.90;;;;;;;18.62;56.17;95388.75;10398768;28;20040;-31
2023/12/09 20:53:59;;;;;;;3.77;1.90;;;;;;;18.66;55.70;95392.03;10397720;28;20367;-31
2023/12/09 20:59:04;;;;;;;5.83;2.23;;;;;;;18.70;55.51;95424.91;10356660;28;20083;-31
2023/12/09 21:04:04;;;;;;;7.55;2.60;;;;;;;18.70;55.88;95442.66;10370067;28;20026;-31
2023/12/09 21:09:05;;;;;;;7.47;2.97;;;;;;;18.67;55.53;95452.00;10332856;28;20045;-31
2023/12/09 21:14:06;;;;;;;6.45;2.58;;;;;;;18.51;55.31;95454.00;10364124;28;20506;-30
2023/12/09 21:19:07;;;;;;;3.92;2.60;;;;;;;18.45;55.02;95494.69;10348960;28;20712;-31
2023/12/09 21:24:08;;;;;;;11.75;3.67;;;;;;;18.38;55.50;95517.63;10344358;28;20044;-30
2023/12/09 21:29:08;;;;;;;7.55;3.58;;;;;;;18.38;55.70;95537.91;10374247;28;20032;-31
2023/12/09 21:34:08;;;;;;;5.20;2.70;;;;;;;18.31;55.25;95542.25;10345477;28;20121;-30
2023/12/09 21:39:09;;;;;;;6.07;3.20;;;;;;;18.21;55.84;95550.00;10336121;28;20026;-31
2023/12/09 21:44:12;;;;;;;7.50;3.38;;;;;;;18.20;56.05;95568.59;10378703;28;20033;-30
2023/12/09 21:49:13;;;;;;;9.73;4.20;;;;;;;18.20;56.06;95569.44;10348241;28;20411;-30
2023/12/09 21:54:14;;;;;;;7.07;3.95;;;;;;;18.20;55.73;95579.59;10359627;28;20021;-31
2023/12/09 21:59:15;;;;;;;7.90;3.35;;;;;;;18.21;55.74;95580.41;10362642;28;20503;-32
2023/12/09 22:04:15;;;;;;;8.32;3.67;;;;;;;18.21;55.68;95565.19;10369228;28;20053;-31
2023/12/09 22:09:15;;;;;;;6.23;3.30;;;;;;;18.22;55.58;95587.13;10347886;28;20063;-30
2023/12/09 22:14:16;;;;;;;6.20;3.20;;;;;;;18.09;55.38;95567.94;10378064;28;20295;-30
2023/12/09 22:19:16;;;;;;;4.53;3.13;;;;;;;18.22;55.40;95593.03;10404883;28;20539;-31
2023/12/09 22:24:16;;;;;;;6.27;3.53;;;;;;;18.20;55.25;95604.91;10410916;28;20245;-31
2023/12/09 22:29:17;;;;;;;4.37;2.63;;;;;;;18.15;55.54;95616.00;10394276;28;20041;-30
2023/12/09 22:34:17;;;;;;;6.80;3.30;;;;;;;18.14;55.70;95622.72;10400557;28;20041;-30
2023/12/09 22:39:17;;;;;;;10.10;3.57;;;;;;;18.09;55.99;95629.56;10412068;28;20037;-31
2023/12/09 22:44:18;;;;;;;12.70;3.77;;;;;;;18.10;55.90;95641.38;10400921;28;20450;-30
2023/12/09 22:49:19;;;;;;;9.48;3.95;;;;;;;18.14;55.49;95657.34;10406441;28;20168;-30
2023/12/09 22:54:19;;;;;;;6.80;3.37;;;;;;;18.13;55.53;95659.06;10407474;28;20116;-31
2023/12/09 22:59:19;;;;;;;7.07;3.40;;;;;;;18.09;55.68;95685.28;10399580;28;20575;-30
2023/12/09 23:04:20;;;;;;;5.53;3.30;;;;;;;18.10;55.55;95708.91;10405995;28;20307;-30
2023/12/09 23:09:21;;;;;;;6.85;3.00;;;;;;;18.08;55.54;95720.78;10407106;28;20068;-31
2023/12/09 23:14:21;;;;;;;6.40;2.63;;;;;;;18.06;55.38;95757.94;10408478;28;20044;-30
2023/12/09 23:19:23;;;;;;;6.32;2.85;;;;;;;18.06;55.71;95778.19;10407581;28;20037;-30